Time;durP1;ratioP1;P1;durP2;ratioP2;P2;SDS_P1;SDS_P2;PMS_P1;PMS_P2;Temp;Humidity;BMP_temperature;BMP_pressure;BME280_temperature;BME280_humidity;BME280_pressure;Samples;Min_cycle;Max_cycle;Signal;HPM_P1;HPM_P2
2023/06/16 00:09:26;;;;;;;5.72;3.17;;;17.50;98.90;;;;;;7412632;19;19978;-82
2023/06/16 00:11:57;;;;;;;4.90;3.40;;;17.50;99.00;;;;;;7417936;19;19933;-83
2023/06/16 00:14:34;;;;;;;7.45;3.42;;;17.50;99.30;;;;;;7415204;19;19918;-83
2023/06/16 00:17:05;;;;;;;;;;;17.30;99.00;;;;;;7417638;19;19918;-83
2023/06/16 00:19:39;;;;;;;3.88;3.33;;;17.30;99.90;;;;;;7417263;19;20325;-83
2023/06/16 00:22:10;;;;;;;3.63;3.13;;;17.20;99.50;;;;;;7418876;19;19914;-83
2023/06/16 00:24:45;;;;;;;4.97;3.20;;;17.30;99.50;;;;;;7415977;19;20541;-83
2023/06/16 00:27:15;;;;;;;4.05;3.20;;;17.50;99.70;;;;;;7414730;19;19970;-82
2023/06/16 00:29:46;;;;;;;3.85;3.15;;;17.50;99.60;;;;;;7417422;19;19923;-83
2023/06/16 00:32:27;;;;;;;4.45;3.38;;;17.60;99.70;;;;;;7418487;19;19938;-83
2023/06/16 00:34:58;;;;;;;6.18;3.40;;;17.30;99.80;;;;;;7417142;19;19934;-83
2023/06/16 00:37:29;;;;;;;5.53;3.10;;;17.50;99.50;;;;;;7416619;19;19930;-83
2023/06/16 00:40:01;;;;;;;3.90;3.05;;;17.60;99.60;;;;;;7417340;19;19942;-83
2023/06/16 00:42:32;;;;;;;5.43;3.30;;;17.50;99.70;;;;;;7411565;19;20316;-83
2023/06/16 00:45:02;;;;;;;4.15;3.40;;;17.50;99.60;;;;;;7415301;19;19925;-83
2023/06/16 00:47:36;;;;;;;5.60;3.92;;;17.50;99.70;;;;;;7415089;19;19946;-84
2023/06/16 00:50:10;;;;;;;6.05;3.25;;;17.40;99.80;;;;;;7421006;19;19988;-83
2023/06/16 00:52:41;;;;;;;4.32;3.17;;;17.40;99.80;;;;;;7416963;19;20019;-83
2023/06/16 00:55:15;;;;;;;4.82;3.38;;;17.40;99.90;;;;;;7406095;19;19926;-83
2023/06/16 00:57:45;;;;;;;5.78;3.60;;;17.30;99.90;;;;;;7412386;19;19925;-83
2023/06/16 01:00:15;;;;;;;5.53;3.30;;;17.10;99.90;;;;;;7411009;19;20300;-83
2023/06/16 01:02:46;;;;;;;5.88;3.42;;;17.00;99.90;;;;;;7411332;19;19929;-83
2023/06/16 01:05:20;;;;;;;4.05;3.20;;;17.10;99.90;;;;;;7412117;19;19914;-83
2023/06/16 01:08:18;;;;;;;4.70;3.47;;;16.90;99.90;;;;;;7409949;19;19918;-82
2023/06/16 01:11:01;;;;;;;4.47;3.80;;;16.50;99.90;;;;;;7413538;19;19914;-83
2023/06/16 01:13:39;;;;;;;6.78;3.83;;;17.00;99.90;;;;;;7414726;19;20508;-83
2023/06/16 01:16:11;;;;;;;6.93;4.28;;;17.00;99.90;;;;;;7415027;19;20344;-82
2023/06/16 01:18:48;;;;;;;4.97;3.90;;;17.00;99.90;;;;;;7414063;19;19919;-83
2023/06/16 01:21:37;;;;;;;7.32;3.92;;;16.80;99.90;;;;;;7410019;19;19918;-84
2023/06/16 01:24:12;;;;;;;4.85;3.95;;;16.80;99.90;;;;;;7412590;19;20305;-83
2023/06/16 01:26:47;;;;;;;5.53;3.95;;;16.90;99.90;;;;;;7410067;19;19929;-83
2023/06/16 01:29:27;;;;;;;4.55;3.85;;;16.80;99.90;;;;;;7409907;19;19932;-83
2023/06/16 01:32:03;;;;;;;7.80;3.83;;;16.80;99.90;;;;;;7413197;19;19942;-83
2023/06/16 01:34:39;;;;;;;6.50;3.97;;;16.80;99.90;;;;;;7412526;19;19946;-83
2023/06/16 01:37:15;;;;;;;4.80;3.95;;;16.60;99.90;;;;;;7414048;19;19922;-83
2023/06/16 01:39:52;;;;;;;6.07;3.70;;;16.70;99.90;;;;;;7414535;19;20270;-82
2023/06/16 01:42:28;;;;;;;5.57;3.90;;;16.60;99.90;;;;;;7412323;19;19919;-83
2023/06/16 01:45:03;;;;;;;5.88;3.53;;;16.50;99.90;;;;;;7411158;19;19926;-83
2023/06/16 01:47:34;;;;;;;5.80;3.85;;;16.60;99.90;;;;;;7409454;19;19931;-82
2023/06/16 01:50:05;;;;;;;6.35;4.40;;;16.60;99.90;;;;;;7414479;19;20548;-83
2023/06/16 01:52:38;;;;;;;6.05;4.50;;;16.30;99.90;;;;;;7413850;19;19930;-83
2023/06/16 01:55:13;;;;;;;5.25;3.60;;;16.60;99.90;;;;;;7409582;19;19929;-83
2023/06/16 01:57:49;;;;;;;4.70;4.10;;;16.60;99.90;;;;;;7410533;19;19925;-82
2023/06/16 02:00:23;;;;;;;5.28;4.00;;;16.50;99.90;;;;;;7412708;19;19918;-83
2023/06/16 02:02:56;;;;;;;5.10;3.92;;;16.40;99.90;;;;;;7413409;19;19927;-82
2023/06/16 02:05:37;;;;;;;5.78;4.75;;;16.40;99.90;;;;;;7408271;19;19918;-83
2023/06/16 02:08:18;;;;;;;6.20;5.15;;;16.30;99.90;;;;;;7408466;19;19943;-82
2023/06/16 02:10:56;;;;;;;6.43;4.78;;;16.30;99.90;;;;;;7409627;19;19918;-83
2023/06/16 02:13:27;;;;;;;6.55;5.20;;;16.60;99.90;;;;;;7412128;19;19915;-83
2023/06/16 02:16:02;;;;;;;7.25;4.85;;;16.50;99.90;;;;;;7407403;19;19925;-83
2023/06/16 02:18:32;;;;;;;8.48;5.55;;;16.40;99.90;;;;;;7415276;19;19918;-83
2023/06/16 02:21:03;;;;;;;6.68;5.32;;;16.40;99.90;;;;;;7411239;19;19921;-83
2023/06/16 02:23:33;;;;;;;5.68;4.93;;;16.50;99.90;;;;;;7411180;19;19915;-83
2023/06/16 02:26:07;;;;;;;7.47;5.15;;;16.40;99.90;;;;;;7411144;19;20475;-83
2023/06/16 02:28:37;;;;;;;6.18;4.93;;;16.50;99.90;;;;;;7408687;19;19945;-83
2023/06/16 02:31:07;;;;;;;5.93;4.93;;;16.40;99.90;;;;;;7410711;19;19923;-83
2023/06/16 02:33:40;;;;;;;6.25;5.13;;;16.30;99.90;;;;;;7409929;19;19922;-83
2023/06/16 02:36:10;;;;;;;7.85;5.70;;;16.40;99.90;;;;;;7411615;19;19934;-83
2023/06/16 02:38:40;;;;;;;7.25;4.88;;;16.30;99.90;;;;;;7408283;19;19926;-83
2023/06/16 02:41:12;;;;;;;7.70;4.88;;;16.40;99.90;;;;;;7408916;19;20359;-82
2023/06/16 02:43:45;;;;;;;5.32;4.78;;;16.20;99.90;;;;;;7407399;19;19954;-83
2023/06/16 02:46:15;;;;;;;13.63;5.57;;;16.20;99.90;;;;;;7406988;19;19955;-82
2023/06/16 02:48:45;;;;;;;8.68;5.20;;;16.20;99.90;;;;;;7408829;19;19961;-83
2023/06/16 02:51:15;;;;;;;6.55;4.57;;;16.40;99.90;;;;;;7409822;19;20321;-83
2023/06/16 02:53:48;;;;;;;6.05;5.20;;;16.40;99.90;;;;;;7408797;19;20369;-83
2023/06/16 03:02:41;;;;;;;6.00;4.78;;;16.20;99.90;;;;;;7406836;19;19918;-83
2023/06/16 03:05:27;;;;;;;8.05;5.55;;;16.30;99.90;;;;;;7409685;19;19982;-83
2023/06/16 03:07:59;;;;;;;6.32;5.15;;;16.20;99.90;;;;;;7411644;19;19950;-83
2023/06/16 03:10:31;;;;;;;6.88;5.30;;;16.00;99.90;;;;;;7408376;19;19982;-82
2023/06/16 03:13:03;;;;;;;6.32;5.07;;;16.20;99.90;;;;;;7408348;19;19929;-82
2023/06/16 03:15:36;;;;;;;7.35;5.13;;;16.20;99.90;;;;;;7410500;19;19914;-82
2023/06/16 03:18:06;;;;;;;7.78;4.90;;;16.40;99.90;;;;;;7407483;19;19923;-83
2023/06/16 03:20:37;;;;;;;5.95;4.70;;;16.00;99.90;;;;;;7407542;19;19941;-83
2023/06/16 03:23:07;;;;;;;;;;;16.20;99.90;;;;;;7411062;19;19923;-83
2023/06/16 03:25:39;;;;;;;7.57;4.65;;;16.00;99.90;;;;;;7405154;19;20415;-83
2023/06/16 03:28:28;;;;;;;8.98;5.60;;;15.90;99.90;;;;;;7407146;19;19918;-83
2023/06/16 03:31:00;;;;;;;8.98;5.50;;;15.90;99.90;;;;;;7406990;19;19942;-83
2023/06/16 03:33:31;;;;;;;7.97;5.00;;;16.00;99.90;;;;;;7412622;19;20348;-83
2023/06/16 03:36:03;;;;;;;7.03;5.43;;;15.90;99.90;;;;;;7405536;19;19990;-83
2023/06/16 03:38:44;;;;;;;9.52;5.60;;;16.00;99.90;;;;;;7411813;19;20357;-83
2023/06/16 03:41:15;;;;;;;8.10;5.15;;;15.80;99.90;;;;;;7409469;19;20588;-82
2023/06/16 03:43:47;;;;;;;6.53;4.50;;;15.80;99.90;;;;;;7405117;19;19947;-82
2023/06/16 03:46:17;;;;;;;9.00;4.90;;;15.80;99.90;;;;;;7405371;19;19950;-83
2023/06/16 03:48:47;;;;;;;8.48;5.57;;;15.90;99.90;;;;;;7408632;19;19921;-82
2023/06/16 03:51:17;;;;;;;9.43;5.82;;;15.80;99.90;;;;;;7407375;19;19934;-82
2023/06/16 03:53:47;;;;;;;7.68;5.28;;;15.80;99.90;;;;;;7407244;19;19990;-83
2023/06/16 03:56:17;;;;;;;9.23;6.03;;;16.10;99.90;;;;;;7403912;19;20412;-83
2023/06/16 03:59:00;;;;;;;8.60;5.53;;;15.90;99.90;;;;;;7407049;19;19930;-82
2023/06/16 04:01:31;;;;;;;7.68;5.10;;;15.80;99.90;;;;;;7408498;19;20333;-83
2023/06/16 04:04:01;;;;;;;5.93;5.00;;;16.10;99.90;;;;;;7405270;19;19948;-83
2023/06/16 04:06:34;;;;;;;8.77;5.63;;;15.90;99.90;;;;;;7405096;19;20000;-83
2023/06/16 04:09:04;;;;;;;8.18;5.88;;;15.80;99.90;;;;;;7404674;19;19942;-82
2023/06/16 04:11:40;;;;;;;7.63;5.45;;;15.80;99.90;;;;;;7409089;19;19933;-83
2023/06/16 04:14:17;;;;;;;7.15;5.63;;;15.60;99.90;;;;;;7408106;19;19939;-83
2023/06/16 04:16:47;;;;;;;8.95;5.80;;;15.80;99.90;;;;;;7406953;19;19914;-83
2023/06/16 04:22:24;;;;;;;10.23;6.40;;;15.80;99.90;;;;;;7402462;19;20389;-83
2023/06/16 04:24:55;;;;;;;9.38;6.15;;;15.90;99.90;;;;;;7405567;19;19946;-83
2023/06/16 04:27:28;;;;;;;9.18;6.82;;;15.80;99.90;;;;;;7407140;19;19974;-82
2023/06/16 04:30:05;;;;;;;9.68;6.88;;;16.00;99.90;;;;;;7406283;19;19933;-83
2023/06/16 04:32:36;;;;;;;8.77;6.47;;;16.00;99.90;;;;;;7413596;19;19910;-83
2023/06/16 04:35:07;;;;;;;11.63;7.72;;;15.90;99.90;;;;;;7411975;19;19929;-82
2023/06/16 04:37:37;;;;;;;11.13;8.57;;;15.90;99.90;;;;;;7407625;19;19957;-83
2023/06/16 04:40:10;;;;;;;9.57;7.70;;;16.00;99.90;;;;;;7409281;19;20233;-83
2023/06/16 04:42:40;;;;;;;9.65;7.53;;;16.00;99.90;;;;;;7412586;19;20333;-82
2023/06/16 04:45:14;;;;;;;9.98;7.82;;;16.00;99.90;;;;;;7412285;19;19926;-82
2023/06/16 04:47:45;;;;;;;12.73;8.63;;;16.00;99.90;;;;;;7412144;19;19922;-82
2023/06/16 04:57:23;;;;;;;14.75;7.60;;;16.50;99.90;;;;;;7411575;19;19919;-83
2023/06/16 04:59:53;;;;;;;13.30;8.93;;;16.10;99.90;;;;;;7399180;19;20012;-83
2023/06/16 05:02:26;;;;;;;12.32;8.77;;;16.20;99.90;;;;;;7408050;19;19927;-83
2023/06/16 05:04:56;;;;;;;14.23;9.75;;;16.30;99.90;;;;;;7407118;19;19914;-82
2023/06/16 05:07:27;;;;;;;17.00;9.25;;;16.20;99.90;;;;;;7413000;19;19990;-83
2023/06/16 05:09:57;;;;;;;15.63;10.07;;;16.20;99.90;;;;;;7408743;19;19925;-83
2023/06/16 05:12:28;;;;;;;13.45;8.57;;;16.40;99.90;;;;;;7411910;19;19933;-83
2023/06/16 05:14:58;;;;;;;12.38;8.05;;;16.30;99.90;;;;;;7410386;19;19955;-83
2023/06/16 05:17:31;;;;;;;15.43;9.55;;;16.50;99.90;;;;;;7412271;19;19923;-82
2023/06/16 05:20:01;;;;;;;11.18;8.02;;;16.70;99.90;;;;;;7414879;19;20284;-82
2023/06/16 05:22:30;;;;;;;21.67;9.43;;;16.50;99.90;;;;;;7412534;19;19966;-83
2023/06/16 05:25:04;;;;;;;14.65;7.25;;;16.50;99.90;;;;;;7412810;19;19919;-82
2023/06/16 05:27:33;;;;;;;13.63;8.90;;;16.70;99.90;;;;;;7412734;19;19918;-82
2023/06/16 05:30:03;;;;;;;12.27;9.32;;;16.60;99.90;;;;;;7411453;19;19925;-83
2023/06/16 05:32:36;;;;;;;13.75;9.85;;;16.50;99.90;;;;;;7413101;19;19925;-83
2023/06/16 05:35:06;;;;;;;11.77;8.52;;;16.60;99.90;;;;;;7412820;19;19915;-84
2023/06/16 05:37:36;;;;;;;13.10;9.15;;;16.70;99.90;;;;;;7411785;19;20245;-83
2023/06/16 05:40:06;;;;;;;13.43;10.27;;;16.80;99.90;;;;;;7410923;19;20240;-83
2023/06/16 05:42:39;;;;;;;13.05;9.25;;;16.80;99.90;;;;;;7411408;19;19922;-84
2023/06/16 05:45:10;;;;;;;15.38;9.55;;;16.80;99.90;;;;;;7414024;19;19942;-83
2023/06/16 05:47:43;;;;;;;15.63;9.93;;;16.90;99.90;;;;;;7409606;19;19942;-83
2023/06/16 05:50:13;;;;;;;13.05;9.38;;;17.10;99.90;;;;;;7415569;19;20318;-83
2023/06/16 05:52:43;;;;;;;15.60;10.48;;;17.00;99.90;;;;;;7411915;19;19918;-83
2023/06/16 05:55:13;;;;;;;12.50;9.32;;;17.00;99.90;;;;;;7411190;19;20333;-83
2023/06/16 05:57:44;;;;;;;18.13;10.95;;;17.10;99.90;;;;;;7411233;19;20365;-84
2023/06/16 06:00:15;;;;;;;13.85;9.82;;;17.10;99.90;;;;;;7412213;19;19939;-83
2023/06/16 06:02:48;;;;;;;17.30;11.63;;;17.00;99.90;;;;;;7408871;19;19953;-83
2023/06/16 06:05:19;;;;;;;34.88;23.85;;;17.30;99.90;;;;;;7412110;19;19970;-82
2023/06/16 06:07:50;;;;;;;28.15;18.35;;;17.20;99.90;;;;;;7410898;19;19922;-82
2023/06/16 06:10:20;;;;;;;;;;;17.30;99.90;;;;;;7415175;19;19935;-84
2023/06/16 06:12:50;;;;;;;24.35;17.48;;;17.20;99.90;;;;;;7408387;19;19922;-84
2023/06/16 06:15:21;;;;;;;14.45;11.70;;;18.20;99.90;;;;;;7407590;19;19931;-83
2023/06/16 06:17:54;;;;;;;15.70;10.35;;;17.40;99.90;;;;;;7407800;19;19947;-83
2023/06/16 06:20:24;;;;;;;11.10;8.95;;;17.30;99.90;;;;;;7407385;19;19919;-82
2023/06/16 06:22:54;;;;;;;19.67;10.27;;;17.30;99.90;;;;;;7406519;19;19917;-83
2023/06/16 06:25:25;;;;;;;13.73;9.50;;;16.90;99.90;;;;;;7406447;19;19907;-82
2023/06/16 06:27:55;;;;;;;15.90;10.07;;;17.40;99.90;;;;;;7409211;19;19932;-82
2023/06/16 06:30:27;;;;;;;13.68;8.75;;;17.30;99.90;;;;;;7407208;19;19935;-82
2023/06/16 06:33:03;;;;;;;11.55;8.80;;;17.40;99.90;;;;;;7409629;19;19982;-82
2023/06/16 06:35:33;;;;;;;12.73;9.20;;;17.40;99.90;;;;;;7410132;19;19915;-82
2023/06/16 06:38:04;;;;;;;12.35;8.50;;;17.40;99.90;;;;;;7404644;19;19947;-83
2023/06/16 06:40:36;;;;;;;10.80;7.50;;;17.60;99.90;;;;;;7405542;19;19918;-82
2023/06/16 06:43:06;;;;;;;11.20;7.28;;;17.60;99.90;;;;;;7406049;19;19921;-83
2023/06/16 06:45:36;;;;;;;10.98;7.68;;;17.70;99.90;;;;;;7405989;19;19929;-82
2023/06/16 06:48:10;;;;;;;9.63;6.80;;;17.80;99.90;;;;;;7404636;19;19934;-82
2023/06/16 06:50:40;;;;;;;10.70;7.38;;;17.80;99.90;;;;;;7405887;19;20353;-82
2023/06/16 06:53:10;;;;;;;11.93;7.40;;;17.80;99.90;;;;;;7403042;19;20245;-83
2023/06/16 06:55:40;;;;;;;10.45;6.60;;;17.70;99.90;;;;;;7407578;19;19918;-82
2023/06/16 06:58:10;;;;;;;8.50;6.43;;;17.80;99.90;;;;;;7405561;19;19922;-82
2023/06/16 07:00:40;;;;;;;8.20;6.05;;;18.10;99.90;;;;;;7411174;19;20259;-82
2023/06/16 07:03:13;;;;;;;10.85;7.80;;;17.90;99.90;;;;;;7407568;19;19915;-83
2023/06/16 07:05:46;;;;;;;12.70;7.53;;;18.20;99.90;;;;;;7409337;19;19922;-83
2023/06/16 07:08:16;;;;;;;14.77;7.53;;;18.00;99.90;;;;;;7405427;19;19922;-83
2023/06/16 07:10:46;;;;;;;9.38;6.68;;;18.10;99.90;;;;;;7407554;19;19923;-83
2023/06/16 07:13:17;;;;;;;10.88;7.25;;;18.30;99.90;;;;;;7409630;19;19918;-82
2023/06/16 07:15:46;;;;;;;8.32;6.85;;;18.30;99.90;;;;;;7408980;19;19918;-83
2023/06/16 07:18:20;;;;;;;10.95;6.70;;;18.20;99.90;;;;;;7407874;19;19931;-83
2023/06/16 07:20:50;;;;;;;12.25;6.97;;;18.30;99.90;;;;;;7409207;19;20337;-83
2023/06/16 07:23:20;;;;;;;9.50;6.43;;;18.30;99.90;;;;;;7408752;19;19919;-83
2023/06/16 07:25:51;;;;;;;9.35;5.90;;;18.30;99.90;;;;;;7410502;19;19927;-83
2023/06/16 07:28:23;;;;;;;9.57;5.97;;;18.50;99.90;;;;;;7409567;19;19919;-83
2023/06/16 07:30:54;;;;;;;9.27;6.55;;;18.50;99.90;;;;;;7409925;19;19929;-83
2023/06/16 07:33:27;;;;;;;15.68;7.07;;;18.60;99.90;;;;;;7409340;19;19946;-82
2023/06/16 07:35:57;;;;;;;9.18;7.05;;;18.60;99.90;;;;;;7404492;19;19922;-83
2023/06/16 07:38:27;;;;;;;10.27;6.07;;;18.70;99.90;;;;;;7406780;19;19918;-83
2023/06/16 07:40:57;;;;;;;8.23;5.88;;;18.70;99.90;;;;;;7411358;19;20204;-83
2023/06/16 07:43:27;;;;;;;8.27;5.72;;;18.70;99.90;;;;;;7406885;19;19911;-83
2023/06/16 07:45:57;;;;;;;9.18;5.65;;;18.90;99.90;;;;;;7407337;19;19925;-83
2023/06/16 07:48:30;;;;;;;6.45;5.18;;;19.10;99.90;;;;;;7408772;19;19933;-83
2023/06/16 07:51:00;;;;;;;8.82;5.53;;;19.00;99.90;;;;;;7409219;19;19930;-83
2023/06/16 07:53:31;;;;;;;7.50;5.03;;;19.10;99.90;;;;;;7407252;19;19915;-83
2023/06/16 07:56:02;;;;;;;7.43;5.50;;;19.70;99.90;;;;;;7405184;19;19919;-83
2023/06/16 07:58:32;;;;;;;6.55;5.13;;;19.30;99.90;;;;;;7407854;19;20429;-83
2023/06/16 08:01:04;;;;;;;8.82;5.05;;;19.20;99.90;;;;;;7406708;19;19962;-83
2023/06/16 08:03:36;;;;;;;6.30;4.53;;;19.40;99.90;;;;;;7409160;19;19926;-84
2023/06/16 08:06:07;;;;;;;6.78;5.18;;;19.40;99.90;;;;;;7412128;19;19930;-84
2023/06/16 08:08:37;;;;;;;6.93;4.80;;;19.30;99.90;;;;;;7411755;19;19926;-84
2023/06/16 08:11:08;;;;;;;5.15;4.38;;;19.60;99.90;;;;;;7415578;19;19929;-84
2023/06/16 08:13:38;;;;;;;5.40;4.70;;;19.40;99.90;;;;;;7412883;19;19938;-82
2023/06/16 08:16:09;;;;;;;7.63;5.55;;;19.40;99.90;;;;;;7413610;19;19922;-84
2023/06/16 08:18:43;;;;;;;9.05;5.47;;;19.50;99.90;;;;;;7411606;19;19950;-83
2023/06/16 08:21:13;;;;;;;7.75;5.10;;;19.60;99.90;;;;;;7414787;19;20282;-84
2023/06/16 08:23:43;;;;;;;8.85;5.00;;;19.70;99.90;;;;;;7411402;19;19918;-84
2023/06/16 08:26:14;;;;;;;7.20;4.82;;;19.60;99.90;;;;;;7414064;19;20485;-83
2023/06/16 08:28:45;;;;;;;8.07;4.55;;;19.80;99.90;;;;;;7410885;19;19933;-83
2023/06/16 08:31:14;;;;;;;5.07;4.20;;;19.80;99.90;;;;;;7414454;19;20334;-83
2023/06/16 08:33:50;;;;;;;6.93;4.45;;;19.90;99.90;;;;;;7412762;19;19922;-84
2023/06/16 08:36:23;;;;;;;7.95;4.53;;;19.80;99.90;;;;;;7405744;19;19919;-84
2023/06/16 08:38:53;;;;;;;4.93;3.85;;;19.70;99.90;;;;;;7413550;19;20372;-84
2023/06/16 08:41:25;;;;;;;6.63;4.10;;;20.00;99.90;;;;;;7412550;19;19922;-84
2023/06/16 08:43:59;;;;;;;8.77;4.53;;;19.90;99.90;;;;;;7412269;19;19914;-84
2023/06/16 08:46:31;;;;;;;6.80;4.07;;;20.00;99.90;;;;;;7411115;19;19927;-83
2023/06/16 08:49:03;;;;;;;6.75;4.80;;;20.10;99.90;;;;;;7413281;19;19929;-84
2023/06/16 08:51:37;;;;;;;6.45;3.90;;;20.10;99.90;;;;;;7413448;19;20533;-84
2023/06/16 08:54:13;;;;;;;6.00;3.45;;;20.10;99.90;;;;;;7410399;19;19955;-84
2023/06/16 08:56:47;;;;;;;4.65;3.40;;;20.10;99.90;;;;;;7411083;19;19982;-83
2023/06/16 08:59:18;;;;;;;4.20;3.58;;;20.10;99.90;;;;;;7414986;19;19925;-83
2023/06/16 09:01:49;;;;;;;5.05;3.33;;;20.20;99.90;;;;;;7412569;19;19936;-84
2023/06/16 09:04:22;;;;;;;4.60;3.00;;;20.10;99.90;;;;;;7409998;19;20400;-84
2023/06/16 09:06:56;;;;;;;4.60;3.00;;;20.30;99.90;;;;;;7413583;19;19974;-84
2023/06/16 09:09:27;;;;;;;6.57;3.10;;;20.20;99.90;;;;;;7408369;19;19914;-84
2023/06/16 09:12:10;;;;;;;6.97;2.92;;;21.80;99.90;;;;;;7412302;19;19953;-84
2023/06/16 09:14:42;;;;;;;3.72;2.92;;;20.30;99.80;;;;;;7411846;19;19955;-84
2023/06/16 09:17:14;;;;;;;7.18;2.60;;;20.30;99.90;;;;;;7410109;19;19916;-84
2023/06/16 09:19:50;;;;;;;5.40;3.20;;;20.40;99.90;;;;;;7412336;19;19922;-84
2023/06/16 09:22:23;;;;;;;7.30;3.35;;;20.50;99.10;;;;;;7409484;19;19935;-84
2023/06/16 09:24:57;;;;;;;5.57;2.65;;;20.70;99.20;;;;;;7410707;19;20340;-84
2023/06/16 09:27:43;;;;;;;5.45;3.28;;;20.70;98.50;;;;;;7411175;19;19923;-84
2023/06/16 09:30:18;;;;;;;4.97;2.60;;;20.80;98.20;;;;;;7409426;19;19918;-83
2023/06/16 09:32:49;;;;;;;3.78;2.30;;;20.70;97.60;;;;;;7408429;19;19915;-84
2023/06/16 09:35:27;;;;;;;5.28;3.00;;;20.70;97.80;;;;;;7411705;19;19939;-84
2023/06/16 09:38:00;;;;;;;3.97;2.47;;;20.70;97.20;;;;;;7408042;19;19914;-84
2023/06/16 09:40:33;;;;;;;4.68;2.60;;;21.00;97.30;;;;;;7408749;19;19921;-83
2023/06/16 09:43:07;;;;;;;4.28;2.80;;;21.00;97.20;;;;;;7409505;19;19918;-84
2023/06/16 09:45:37;;;;;;;4.40;2.33;;;21.10;96.40;;;;;;7408465;19;19922;-84
2023/06/16 09:48:09;;;;;;;3.83;2.35;;;21.20;96.60;;;;;;7411822;19;19910;-83
2023/06/16 09:50:43;;;;;;;3.67;2.05;;;21.20;96.40;;;;;;7408329;19;19950;-84
2023/06/16 09:53:17;;;;;;;2.65;2.10;;;21.30;96.10;;;;;;7411558;19;19919;-83
2023/06/16 09:55:48;;;;;;;4.78;2.17;;;21.20;96.10;;;;;;7412593;19;19920;-84
2023/06/16 09:58:18;;;;;;;8.48;2.33;;;21.40;96.20;;;;;;7408415;19;20246;-84
2023/06/16 10:00:49;;;;;;;3.15;2.00;;;21.60;96.10;;;;;;7408035;19;20325;-83
2023/06/16 10:03:19;;;;;;;4.15;2.17;;;21.60;96.20;;;;;;7409714;19;19918;-84
2023/06/16 10:05:57;;;;;;;5.25;2.20;;;21.70;96.00;;;;;;7408543;19;19922;-84
2023/06/16 10:08:31;;;;;;;5.30;2.22;;;21.80;95.20;;;;;;7410557;19;19914;-84
2023/06/16 10:11:01;;;;;;;8.57;3.10;;;20.00;94.80;;;;;;7407902;19;19918;-84
2023/06/16 10:13:34;;;;;;;4.57;1.95;;;21.80;95.30;;;;;;7410474;19;19921;-84
2023/06/16 10:16:09;;;;;;;10.60;3.47;;;21.90;95.60;;;;;;7407181;19;19919;-84
2023/06/16 10:18:41;;;;;;;3.08;1.98;;;21.90;95.40;;;;;;7407731;19;19954;-83
2023/06/16 10:21:14;;;;;;;4.50;2.60;;;21.80;95.10;;;;;;7409077;19;19926;-84
2023/06/16 10:23:45;;;;;;;4.20;2.20;;;21.90;94.90;;;;;;7409602;19;20008;-85
2023/06/16 10:26:17;;;;;;;5.15;2.40;;;21.90;94.50;;;;;;7408868;19;19942;-85
2023/06/16 10:28:49;;;;;;;2.28;1.90;;;22.00;94.80;;;;;;7412809;19;20285;-84
2023/06/16 10:31:23;;;;;;;3.15;1.90;;;22.20;94.30;;;;;;7414211;19;20258;-84
2023/06/16 10:33:57;;;;;;;4.53;1.83;;;22.20;94.50;;;;;;7410056;19;19927;-86
2023/06/16 10:36:33;;;;;;;6.85;2.92;;;22.30;93.80;;;;;;7408652;19;19918;-86
2023/06/16 10:39:09;;;;;;;3.70;2.10;;;21.10;92.90;;;;;;7409788;19;19946;-84
2023/06/16 10:41:52;;;;;;;3.78;2.13;;;21.20;93.20;;;;;;7409144;19;19918;-86
2023/06/16 10:44:30;;;;;;;5.30;2.05;;;22.40;93.10;;;;;;7411391;19;19933;-85
2023/06/16 10:47:32;;;;;;;4.22;2.13;;;22.40;92.50;;;;;;7408794;19;19926;-85
2023/06/16 10:50:06;;;;;;;4.45;2.10;;;22.60;92.60;;;;;;7387116;19;20360;-84
2023/06/16 10:52:57;;;;;;;3.55;2.10;;;22.60;93.40;;;;;;7397556;19;19950;-85
2023/06/16 10:55:44;;;;;;;4.45;1.90;;;22.80;92.40;;;;;;7405525;19;19950;-85
2023/06/16 10:59:06;;;;;;;3.85;2.33;;;22.80;92.00;;;;;;7406395;19;19925;-87
2023/06/16 11:01:59;;;;;;;5.15;1.92;;;22.70;92.60;;;;;;7408031;19;19925;-87
2023/06/16 11:04:41;;;;;;;4.82;1.98;;;22.80;92.90;;;;;;7401626;19;19914;-87
2023/06/16 11:07:16;;;;;;;4.57;2.42;;;22.90;92.70;;;;;;7404974;19;19922;-84
2023/06/16 11:10:15;;;;;;;3.60;1.98;;;23.00;92.90;;;;;;7409241;19;19946;-87
2023/06/16 11:13:03;;;;;;;2.08;1.48;;;23.40;92.60;;;;;;7404517;19;19950;-87
2023/06/16 11:15:44;;;;;;;2.53;1.70;;;23.40;92.00;;;;;;7401881;19;19917;-85
2023/06/16 11:22:35;;;;;;;4.97;2.85;;;24.90;91.00;;;;;;7401028;19;19918;-86
2023/06/16 11:25:33;;;;;;;3.53;1.65;;;23.40;91.10;;;;;;7402195;19;19930;-87
2023/06/16 11:28:09;;;;;;;5.15;2.22;;;23.50;90.50;;;;;;7407583;19;20321;-87
2023/06/16 11:30:57;;;;;;;3.95;2.25;;;21.70;90.50;;;;;;7412226;19;19926;-85
2023/06/16 11:33:37;;;;;;;3.67;2.17;;;23.80;90.00;;;;;;7403758;19;19970;-85
2023/06/16 11:36:21;;;;;;;3.17;2.10;;;24.00;90.10;;;;;;7398183;19;19918;-86
2023/06/16 11:38:55;;;;;;;3.13;1.75;;;24.20;89.50;;;;;;7391173;19;20348;-84
2023/06/16 11:41:34;;;;;;;2.53;1.80;;;24.10;90.10;;;;;;7400037;19;19933;-83
2023/06/16 11:44:20;;;;;;;2.17;1.73;;;24.40;89.10;;;;;;7393636;19;19925;-88
2023/06/16 11:46:50;;;;;;;3.63;2.28;;;24.40;88.30;;;;;;7391772;19;19931;-86
2023/06/16 11:49:22;;;;;;;3.88;1.80;;;24.30;88.00;;;;;;7390448;19;19923;-87
2023/06/16 11:51:54;;;;;;;3.70;2.13;;;24.30;88.60;;;;;;7394867;19;19919;-87
2023/06/16 11:54:24;;;;;;;6.57;2.13;;;24.20;88.40;;;;;;7394262;19;19935;-85
2023/06/16 11:57:00;;;;;;;4.05;1.88;;;24.10;86.80;;;;;;7385221;19;20527;-87
2023/06/16 11:59:34;;;;;;;3.92;1.63;;;24.00;88.40;;;;;;7388066;19;19929;-87
2023/06/16 12:02:06;;;;;;;8.45;2.88;;;24.10;88.50;;;;;;7396031;19;19926;-84
2023/06/16 12:04:37;;;;;;;4.03;2.30;;;24.30;88.20;;;;;;7299477;19;19927;-84
2023/06/16 12:07:08;;;;;;;2.63;1.80;;;24.40;87.00;;;;;;7393744;19;20523;-85
2023/06/16 12:09:41;;;;;;;3.38;1.90;;;24.40;86.80;;;;;;7387115;19;20782;-87
2023/06/16 12:12:16;;;;;;;4.20;1.90;;;22.70;85.00;;;;;;7390713;19;19925;-88
2023/06/16 12:14:47;;;;;;;5.35;2.08;;;24.40;85.40;;;;;;7389669;19;19954;-83
2023/06/16 12:17:18;;;;;;;5.25;1.85;;;24.40;85.20;;;;;;7392421;19;19929;-82
2023/06/16 12:19:48;;;;;;;3.33;1.52;;;24.00;85.20;;;;;;7391727;19;19922;-83
2023/06/16 12:22:20;;;;;;;2.80;1.88;;;24.60;85.00;;;;;;7392141;19;19927;-86
2023/06/16 12:24:55;;;;;;;4.35;1.90;;;24.80;85.00;;;;;;7385872;19;19925;-76
2023/06/16 12:27:33;;;;;;;2.70;2.00;;;26.10;84.00;;;;;;7378637;19;19918;-76
2023/06/16 12:30:13;;;;;;;2.80;1.90;;;25.20;83.40;;;;;;7378337;19;19952;-76
2023/06/16 12:32:44;;;;;;;4.40;2.08;;;24.70;80.40;;;;;;7382549;19;19930;-77
2023/06/16 12:35:25;;;;;;;5.32;2.00;;;25.40;81.60;;;;;;7405227;19;19918;-77
2023/06/16 12:38:04;;;;;;;4.43;1.63;;;25.30;82.50;;;;;;7403164;19;19926;-77
2023/06/16 12:48:07;;;;;;;6.10;2.08;;;25.10;77.80;;;;;;7400904;19;19927;-78
2023/06/16 12:50:43;;;;;;;4.88;1.80;;;26.50;80.20;;;;;;7398716;19;19919;-77
2023/06/16 12:53:14;;;;;;;4.97;2.33;;;25.00;80.60;;;;;;7404787;19;19922;-77
2023/06/16 12:55:46;;;;;;;4.20;2.28;;;25.00;81.50;;;;;;7396222;19;19918;-78
2023/06/16 12:58:18;;;;;;;2.80;1.90;;;25.10;80.30;;;;;;7406405;19;19919;-79
2023/06/16 13:00:58;;;;;;;4.95;2.17;;;25.30;80.80;;;;;;7405821;19;20263;-77
2023/06/16 13:03:29;;;;;;;3.92;1.95;;;25.30;80.20;;;;;;7404548;19;19926;-77
2023/06/16 13:05:59;;;;;;;4.63;2.38;;;25.30;80.90;;;;;;7403501;19;19917;-77
2023/06/16 13:08:35;;;;;;;7.43;1.90;;;25.50;81.00;;;;;;7404800;19;19925;-76
2023/06/16 13:11:05;;;;;;;5.50;2.83;;;25.40;81.40;;;;;;7403013;19;20308;-77
2023/06/16 13:13:35;;;;;;;3.55;2.08;;;25.40;80.20;;;;;;7403656;19;19982;-77
2023/06/16 13:16:08;;;;;;;4.03;2.30;;;25.20;80.40;;;;;;7404099;19;20248;-77
2023/06/16 13:18:39;;;;;;;4.82;1.92;;;25.30;81.10;;;;;;7401947;19;19990;-77
2023/06/16 13:21:10;;;;;;;3.30;1.88;;;25.60;81.60;;;;;;7405303;19;19937;-77
2023/06/16 13:23:49;;;;;;;3.50;2.50;;;26.00;81.50;;;;;;7403775;19;19926;-77
2023/06/16 13:26:28;;;;;;;4.47;1.95;;;24.40;81.20;;;;;;7403086;19;20380;-78
2023/06/16 13:28:58;;;;;;;3.00;2.20;;;26.20;81.70;;;;;;7404956;19;20279;-78
2023/06/16 13:31:32;;;;;;;4.03;2.20;;;25.80;82.30;;;;;;7404195;19;19911;-77
2023/06/16 13:34:19;;;;;;;7.10;2.97;;;25.00;81.30;;;;;;7402540;19;19929;-78
2023/06/16 13:36:53;;;;;;;3.15;2.20;;;25.10;81.00;;;;;;7401009;19;20283;-78
2023/06/16 13:39:40;;;;;;;3.90;2.10;;;25.90;81.30;;;;;;7404587;19;20498;-78
2023/06/16 13:42:20;;;;;;;6.85;2.30;;;26.30;81.50;;;;;;7403306;19;20434;-77
2023/06/16 13:44:56;;;;;;;3.47;2.03;;;26.50;83.30;;;;;;7407329;19;19918;-78
2023/06/16 13:47:36;;;;;;;7.43;2.65;;;26.80;81.30;;;;;;7405797;19;19911;-78
2023/06/16 13:50:24;;;;;;;4.38;2.72;;;26.60;82.20;;;;;;7404993;19;19998;-78
2023/06/16 13:53:07;;;;;;;4.75;2.20;;;26.00;82.60;;;;;;7405069;19;20005;-78
2023/06/16 13:55:48;;;;;;;3.63;2.42;;;28.30;82.10;;;;;;7404979;19;20368;-78